Downsview Airport

CYZD · 安大略, 加拿大

罗盘
风向 的 风向 的 风向 到 风向 200° Downsview Airport 15/33
风: 6 kt, 2 beaufort

3 kt

5 kt
改变
0 ft 2.000 4.000 6.000 8.000 10.000
Cloud Cloud
FEW 4.200
Cloud Cloud Cloud Cloud Cloud Cloud Cloud Cloud
OVC 6.600
METAR CYTZ 271920Z AUTO 20006KT 180V290 7SM -TSRA FEW042 OVC066 09/08 A2959 RMK LTNG DIST ALQDS PCPN 1.2MM PAST HR SLP025

METAR Downsview Airport - CYZD

Downsview Airport是,加拿大中的中型机场。 该机场位于纬度43,74262和经度-79,46541。 该机场有一条跑道: 15/33. 本场的ICAO机场代码为CYZD。 机场在Toronto FIR中。

该航空气象观测是针对Toronto/City Centre Airport在2024年2月27日 14:20, 当地时间进行的。

机场观察

风向为200°,速度为6 kt。 风向在180°和290°之间变化。

可见度为7 mi。

有几云在4.200 ft的高度 和 乌云密布在6.600 ft的高度。 破损或更高的上限为6.600 ft。

当前天气为光 雷暴 雨。 温度为9 °C,阵风为6 °C。 露点为8 °C,相对湿度为94%。 海平面上的气压为29,59 inHg (QNH)。

白天

今天,太阳从06:58升起,在18:03降落。 这适用于Downsview Airport,世界夏令时可能有所不同。 当地时间与世界标准时间之间的时差为-5 小时。 当前,没有夏令时有效。

公司介绍

我们没有关于这个机场的公司信息。

体会

到Vliegles.nl去找飞行课程,跳伞和其他飞行体验。 浏览页面,了解Downsview Airport附近所有可用的活动。 你也可以使用搜索功能来寻找你所在地附近的特定飞行课程、跳伞或其他飞行体验。

跑道

Id 标题 侧风 逆风 侧风 %
15/33 142°-322° 5 kt 3 kt 85 %

逆风成分最大的方向会被突出显示,并用于横风计算。 这并不一定意味着这个方向在使用。

乌云

4.200 ft FEW 几云
6.600 ft OVC 乌云密布

温度 & 天气

天气 光 雷暴 雨
温度 9 °C
露点 8 °C
相对湿度 94%
风寒 6 °C
Kp-index 2 (0-9)

评论

SLP025海平面压力为29,60 inHg (29,60 inHg)
LTNG DIST ALQDS PCPN 1.2MM PAST HR

白天

日出
06:57
中午
12:30
日落
18:02 (3:25)

小工具

你想在你的网站上有一个关于Downsview Airport的当前航空天气(METAR)的小部件吗?

显示HTML代码
?>